sensor_id;sensor_type;location;lat;lon;timestamp;P1;durP1;ratioP1;P2;durP2;ratioP2
77449;SDS011;66536;53.150;18.172;2023-04-03T00:01:02;9.00;;;1.60;;
77449;SDS011;66536;53.150;18.172;2023-04-03T00:03:33;9.10;;;1.20;;
77449;SDS011;66536;53.150;18.172;2023-04-03T00:06:17;12.70;;;1.80;;
77449;SDS011;66536;53.150;18.172;2023-04-03T00:08:52;13.40;;;3.00;;
77449;SDS011;66536;53.150;18.172;2023-04-03T00:11:25;11.80;;;2.10;;
77449;SDS011;66536;53.150;18.172;2023-04-03T00:14:12;5.70;;;1.80;;
77449;SDS011;66536;53.150;18.172;2023-04-03T00:16:52;5.90;;;1.30;;
77449;SDS011;66536;53.150;18.172;2023-04-03T00:19:21;3.70;;;0.70;;
77449;SDS011;66536;53.150;18.172;2023-04-03T00:21:47;4.40;;;0.80;;
77449;SDS011;66536;53.150;18.172;2023-04-03T00:24:17;7.40;;;1.20;;
77449;SDS011;66536;53.150;18.172;2023-04-03T00:26:50;6.20;;;1.00;;
77449;SDS011;66536;53.150;18.172;2023-04-03T00:29:24;6.60;;;1.10;;
77449;SDS011;66536;53.150;18.172;2023-04-03T00:31:53;6.60;;;0.90;;
77449;SDS011;66536;53.150;18.172;2023-04-03T00:34:22;5.70;;;1.50;;
77449;SDS011;66536;53.150;18.172;2023-04-03T00:37:16;5.50;;;0.70;;
77449;SDS011;66536;53.150;18.172;2023-04-03T00:39:47;7.10;;;1.10;;
77449;SDS011;66536;53.150;18.172;2023-04-03T00:42:22;3.90;;;0.90;;
77449;SDS011;66536;53.150;18.172;2023-04-03T00:48:05;3.30;;;0.60;;
77449;SDS011;66536;53.150;18.172;2023-04-03T00:50:53;7.90;;;2.80;;
77449;SDS011;66536;53.150;18.172;2023-04-03T00:53:41;5.20;;;1.00;;
77449;SDS011;66536;53.150;18.172;2023-04-03T00:56:20;5.30;;;1.30;;
77449;SDS011;66536;53.150;18.172;2023-04-03T00:59:01;6.10;;;1.00;;
77449;SDS011;66536;53.150;18.172;2023-04-03T01:01:40;3.80;;;0.80;;
77449;SDS011;66536;53.150;18.172;2023-04-03T01:07:32;6.80;;;0.80;;
77449;SDS011;66536;53.150;18.172;2023-04-03T01:10:11;3.30;;;0.60;;
77449;SDS011;66536;53.150;18.172;2023-04-03T01:12:48;3.70;;;0.50;;
77449;SDS011;66536;53.150;18.172;2023-04-03T01:15:42;6.10;;;0.90;;
77449;SDS011;66536;53.150;18.172;2023-04-03T01:18:11;2.90;;;0.70;;
77449;SDS011;66536;53.150;18.172;2023-04-03T01:23:53;4.40;;;0.90;;
77449;SDS011;66536;53.150;18.172;2023-04-03T01:26:30;5.50;;;0.80;;
77449;SDS011;66536;53.150;18.172;2023-04-03T01:29:07;5.10;;;0.90;;
77449;SDS011;66536;53.150;18.172;2023-04-03T01:31:57;2.30;;;0.60;;
77449;SDS011;66536;53.150;18.172;2023-04-03T01:34:33;4.80;;;0.90;;
77449;SDS011;66536;53.150;18.172;2023-04-03T01:37:21;3.20;;;0.70;;
77449;SDS011;66536;53.150;18.172;2023-04-03T01:40:14;6.60;;;0.90;;
77449;SDS011;66536;53.150;18.172;2023-04-03T01:42:54;7.00;;;1.10;;
77449;SDS011;66536;53.150;18.172;2023-04-03T01:45:30;7.70;;;1.10;;
77449;SDS011;66536;53.150;18.172;2023-04-03T01:48:21;1.20;;;0.40;;
77449;SDS011;66536;53.150;18.172;2023-04-03T01:51:04;3.90;;;1.30;;
77449;SDS011;66536;53.150;18.172;2023-04-03T01:53:44;4.10;;;0.90;;
77449;SDS011;66536;53.150;18.172;2023-04-03T01:56:47;4.40;;;0.90;;
77449;SDS011;66536;53.150;18.172;2023-04-03T01:59:14;3.90;;;0.70;;
77449;SDS011;66536;53.150;18.172;2023-04-03T02:01:44;3.40;;;0.70;;
77449;SDS011;66536;53.150;18.172;2023-04-03T02:04:11;2.10;;;0.40;;
77449;SDS011;66536;53.150;18.172;2023-04-03T02:06:39;5.40;;;0.80;;
77449;SDS011;66536;53.150;18.172;2023-04-03T02:09:06;3.90;;;0.40;;
77449;SDS011;66536;53.150;18.172;2023-04-03T02:11:40;1.10;;;0.40;;
77449;SDS011;66536;53.150;18.172;2023-04-03T02:14:08;8.50;;;1.10;;
77449;SDS011;66536;53.150;18.172;2023-04-03T02:16:35;5.50;;;0.90;;
77449;SDS011;66536;53.150;18.172;2023-04-03T02:19:09;5.10;;;1.20;;
77449;SDS011;66536;53.150;18.172;2023-04-03T02:21:35;2.70;;;0.60;;
77449;SDS011;66536;53.150;18.172;2023-04-03T02:24:01;2.30;;;0.80;;
77449;SDS011;66536;53.150;18.172;2023-04-03T02:26:33;4.80;;;0.50;;
77449;SDS011;66536;53.150;18.172;2023-04-03T02:29:03;4.70;;;0.50;;
77449;SDS011;66536;53.150;18.172;2023-04-03T02:31:29;6.50;;;1.20;;
77449;SDS011;66536;53.150;18.172;2023-04-03T02:34:01;2.90;;;0.80;;
77449;SDS011;66536;53.150;18.172;2023-04-03T02:36:29;3.20;;;0.60;;
77449;SDS011;66536;53.150;18.172;2023-04-03T02:38:57;5.10;;;0.70;;
77449;SDS011;66536;53.150;18.172;2023-04-03T02:41:25;3.50;;;0.70;;
77449;SDS011;66536;53.150;18.172;2023-04-03T02:43:59;4.20;;;1.20;;
77449;SDS011;66536;53.150;18.172;2023-04-03T02:46:26;6.50;;;0.80;;
77449;SDS011;66536;53.150;18.172;2023-04-03T02:48:57;6.00;;;0.90;;
77449;SDS011;66536;53.150;18.172;2023-04-03T02:51:23;2.90;;;1.20;;
77449;SDS011;66536;53.150;18.172;2023-04-03T02:53:58;9.80;;;5.20;;
77449;SDS011;66536;53.150;18.172;2023-04-03T02:56:29;3.70;;;1.30;;
77449;SDS011;66536;53.150;18.172;2023-04-03T02:58:55;7.30;;;2.00;;
77449;SDS011;66536;53.150;18.172;2023-04-03T03:01:23;2.40;;;0.60;;
77449;SDS011;66536;53.150;18.172;2023-04-03T03:03:49;3.60;;;0.60;;
77449;SDS011;66536;53.150;18.172;2023-04-03T03:06:18;5.40;;;0.60;;
77449;SDS011;66536;53.150;18.172;2023-04-03T03:08:46;2.30;;;0.40;;
77449;SDS011;66536;53.150;18.172;2023-04-03T03:11:17;2.60;;;0.50;;
77449;SDS011;66536;53.150;18.172;2023-04-03T03:13:44;6.90;;;0.90;;
77449;SDS011;66536;53.150;18.172;2023-04-03T03:16:26;2.60;;;0.60;;
77449;SDS011;66536;53.150;18.172;2023-04-03T03:18:52;3.80;;;0.40;;
77449;SDS011;66536;53.150;18.172;2023-04-03T03:21:21;5.80;;;0.40;;
77449;SDS011;66536;53.150;18.172;2023-04-03T03:23:48;2.80;;;0.40;;
77449;SDS011;66536;53.150;18.172;2023-04-03T03:26:14;5.50;;;0.60;;
77449;SDS011;66536;53.150;18.172;2023-04-03T03:28:42;4.30;;;0.70;;
77449;SDS011;66536;53.150;18.172;2023-04-03T03:31:08;5.80;;;0.90;;
77449;SDS011;66536;53.150;18.172;2023-04-03T03:33:36;5.10;;;0.40;;
77449;SDS011;66536;53.150;18.172;2023-04-03T03:36:02;5.10;;;1.00;;
77449;SDS011;66536;53.150;18.172;2023-04-03T03:38:29;3.70;;;0.40;;
77449;SDS011;66536;53.150;18.172;2023-04-03T03:40:55;2.50;;;0.50;;
77449;SDS011;66536;53.150;18.172;2023-04-03T03:43:23;4.20;;;0.80;;
77449;SDS011;66536;53.150;18.172;2023-04-03T03:45:52;5.30;;;0.60;;
77449;SDS011;66536;53.150;18.172;2023-04-03T03:48:19;4.10;;;0.70;;
77449;SDS011;66536;53.150;18.172;2023-04-03T03:50:47;6.80;;;1.00;;
77449;SDS011;66536;53.150;18.172;2023-04-03T03:53:15;3.90;;;0.90;;
77449;SDS011;66536;53.150;18.172;2023-04-03T03:55:42;6.10;;;3.70;;
77449;SDS011;66536;53.150;18.172;2023-04-03T03:58:29;5.00;;;1.90;;
77449;SDS011;66536;53.150;18.172;2023-04-03T04:00:55;6.90;;;1.60;;
77449;SDS011;66536;53.150;18.172;2023-04-03T04:03:28;6.00;;;2.00;;
77449;SDS011;66536;53.150;18.172;2023-04-03T04:06:13;5.30;;;2.00;;
77449;SDS011;66536;53.150;18.172;2023-04-03T04:08:45;3.30;;;0.70;;
77449;SDS011;66536;53.150;18.172;2023-04-03T04:11:11;5.40;;;1.00;;
77449;SDS011;66536;53.150;18.172;2023-04-03T04:14:15;5.90;;;0.80;;
77449;SDS011;66536;53.150;18.172;2023-04-03T04:16:41;4.30;;;0.90;;
77449;SDS011;66536;53.150;18.172;2023-04-03T04:19:11;6.80;;;1.40;;
77449;SDS011;66536;53.150;18.172;2023-04-03T04:21:37;7.60;;;1.60;;
77449;SDS011;66536;53.150;18.172;2023-04-03T04:24:05;5.10;;;2.20;;
77449;SDS011;66536;53.150;18.172;2023-04-03T04:26:32;6.10;;;1.30;;
77449;SDS011;66536;53.150;18.172;2023-04-03T04:29:00;6.10;;;1.70;;
77449;SDS011;66536;53.150;18.172;2023-04-03T04:31:31;6.40;;;1.80;;
77449;SDS011;66536;53.150;18.172;2023-04-03T04:33:57;3.90;;;0.70;;
77449;SDS011;66536;53.150;18.172;2023-04-03T04:36:25;3.50;;;0.80;;
77449;SDS011;66536;53.150;18.172;2023-04-03T04:38:52;2.70;;;0.70;;
77449;SDS011;66536;53.150;18.172;2023-04-03T04:41:20;8.40;;;2.60;;
77449;SDS011;66536;53.150;18.172;2023-04-03T04:43:49;8.00;;;1.90;;
77449;SDS011;66536;53.150;18.172;2023-04-03T04:46:16;6.20;;;1.00;;
77449;SDS011;66536;53.150;18.172;2023-04-03T04:48:46;7.20;;;2.10;;
77449;SDS011;66536;53.150;18.172;2023-04-03T04:51:16;4.80;;;1.10;;
77449;SDS011;66536;53.150;18.172;2023-04-03T04:53:42;4.10;;;1.50;;
77449;SDS011;66536;53.150;18.172;2023-04-03T04:56:10;7.30;;;2.70;;
77449;SDS011;66536;53.150;18.172;2023-04-03T04:58:37;11.70;;;5.80;;
77449;SDS011;66536;53.150;18.172;2023-04-03T05:01:05;7.60;;;1.80;;
77449;SDS011;66536;53.150;18.172;2023-04-03T05:03:34;6.40;;;1.20;;
77449;SDS011;66536;53.150;18.172;2023-04-03T05:06:05;9.70;;;2.60;;
77449;SDS011;66536;53.150;18.172;2023-04-03T05:08:31;8.20;;;2.00;;
77449;SDS011;66536;53.150;18.172;2023-04-03T05:10:58;6.30;;;1.10;;
77449;SDS011;66536;53.150;18.172;2023-04-03T05:13:27;3.80;;;1.40;;
77449;SDS011;66536;53.150;18.172;2023-04-03T05:15:55;2.00;;;0.50;;
77449;SDS011;66536;53.150;18.172;2023-04-03T05:18:21;2.40;;;0.60;;
77449;SDS011;66536;53.150;18.172;2023-04-03T05:20:48;4.80;;;1.00;;
77449;SDS011;66536;53.150;18.172;2023-04-03T05:23:17;11.90;;;1.80;;
77449;SDS011;66536;53.150;18.172;2023-04-03T05:25:49;8.60;;;1.10;;
77449;SDS011;66536;53.150;18.172;2023-04-03T05:28:16;4.30;;;1.80;;
77449;SDS011;66536;53.150;18.172;2023-04-03T05:30:43;4.40;;;1.10;;
77449;SDS011;66536;53.150;18.172;2023-04-03T05:33:09;1.30;;;0.50;;
77449;SDS011;66536;53.150;18.172;2023-04-03T05:35:41;4.80;;;1.20;;
77449;SDS011;66536;53.150;18.172;2023-04-03T05:38:15;4.00;;;1.20;;
77449;SDS011;66536;53.150;18.172;2023-04-03T05:40:42;5.70;;;1.10;;
77449;SDS011;66536;53.150;18.172;2023-04-03T05:43:08;6.00;;;1.30;;
77449;SDS011;66536;53.150;18.172;2023-04-03T05:45:36;2.10;;;0.70;;
77449;SDS011;66536;53.150;18.172;2023-04-03T05:48:02;4.30;;;1.20;;
77449;SDS011;66536;53.150;18.172;2023-04-03T05:50:29;3.90;;;0.90;;
77449;SDS011;66536;53.150;18.172;2023-04-03T05:52:56;6.20;;;1.40;;
77449;SDS011;66536;53.150;18.172;2023-04-03T05:55:25;7.30;;;2.60;;
77449;SDS011;66536;53.150;18.172;2023-04-03T05:57:52;6.10;;;2.30;;
77449;SDS011;66536;53.150;18.172;2023-04-03T06:00:18;9.80;;;3.50;;
77449;SDS011;66536;53.150;18.172;2023-04-03T06:02:48;3.60;;;0.90;;
77449;SDS011;66536;53.150;18.172;2023-04-03T06:05:18;2.00;;;0.60;;
77449;SDS011;66536;53.150;18.172;2023-04-03T06:07:45;4.60;;;1.20;;
77449;SDS011;66536;53.150;18.172;2023-04-03T06:10:16;2.80;;;1.10;;
77449;SDS011;66536;53.150;18.172;2023-04-03T06:12:43;5.00;;;1.20;;
77449;SDS011;66536;53.150;18.172;2023-04-03T06:15:28;5.00;;;1.10;;
77449;SDS011;66536;53.150;18.172;2023-04-03T06:17:54;5.90;;;1.20;;
77449;SDS011;66536;53.150;18.172;2023-04-03T06:20:20;5.20;;;1.70;;
77449;SDS011;66536;53.150;18.172;2023-04-03T06:22:48;6.50;;;2.50;;
77449;SDS011;66536;53.150;18.172;2023-04-03T06:25:15;3.30;;;1.00;;
77449;SDS011;66536;53.150;18.172;2023-04-03T06:27:43;4.90;;;1.40;;
77449;SDS011;66536;53.150;18.172;2023-04-03T06:30:09;8.60;;;1.00;;
77449;SDS011;66536;53.150;18.172;2023-04-03T06:32:37;4.70;;;1.60;;
77449;SDS011;66536;53.150;18.172;2023-04-03T06:35:04;8.50;;;3.40;;
77449;SDS011;66536;53.150;18.172;2023-04-03T06:37:31;3.40;;;1.10;;
77449;SDS011;66536;53.150;18.172;2023-04-03T06:39:58;39.60;;;17.10;;
77449;SDS011;66536;53.150;18.172;2023-04-03T06:42:25;30.70;;;10.30;;
77449;SDS011;66536;53.150;18.172;2023-04-03T06:44:57;5.60;;;1.10;;
77449;SDS011;66536;53.150;18.172;2023-04-03T06:47:23;5.60;;;1.50;;
77449;SDS011;66536;53.150;18.172;2023-04-03T06:49:49;6.30;;;1.30;;
77449;SDS011;66536;53.150;18.172;2023-04-03T06:52:15;8.10;;;2.20;;
77449;SDS011;66536;53.150;18.172;2023-04-03T06:54:42;4.50;;;1.30;;
77449;SDS011;66536;53.150;18.172;2023-04-03T06:57:08;8.30;;;1.40;;
77449;SDS011;66536;53.150;18.172;2023-04-03T06:59:34;7.00;;;1.60;;
77449;SDS011;66536;53.150;18.172;2023-04-03T07:02:02;2.40;;;1.30;;
77449;SDS011;66536;53.150;18.172;2023-04-03T07:04:30;8.30;;;1.60;;
77449;SDS011;66536;53.150;18.172;2023-04-03T07:06:56;2.40;;;0.80;;
77449;SDS011;66536;53.150;18.172;2023-04-03T07:09:22;2.70;;;1.00;;
77449;SDS011;66536;53.150;18.172;2023-04-03T07:11:48;2.40;;;0.80;;
77449;SDS011;66536;53.150;18.172;2023-04-03T07:14:15;4.70;;;1.00;;
77449;SDS011;66536;53.150;18.172;2023-04-03T07:16:44;3.90;;;1.10;;
77449;SDS011;66536;53.150;18.172;2023-04-03T07:19:10;3.10;;;0.80;;
77449;SDS011;66536;53.150;18.172;2023-04-03T07:21:36;4.70;;;1.00;;
77449;SDS011;66536;53.150;18.172;2023-04-03T07:24:02;2.10;;;0.50;;
77449;SDS011;66536;53.150;18.172;2023-04-03T07:26:28;3.50;;;1.20;;
77449;SDS011;66536;53.150;18.172;2023-04-03T07:28:54;6.20;;;1.50;;
77449;SDS011;66536;53.150;18.172;2023-04-03T07:31:21;4.70;;;1.30;;
77449;SDS011;66536;53.150;18.172;2023-04-03T07:33:50;3.60;;;0.90;;
77449;SDS011;66536;53.150;18.172;2023-04-03T07:36:18;2.90;;;0.90;;
77449;SDS011;66536;53.150;18.172;2023-04-03T07:38:46;4.00;;;1.10;;
77449;SDS011;66536;53.150;18.172;2023-04-03T07:41:14;5.70;;;2.20;;
77449;SDS011;66536;53.150;18.172;2023-04-03T07:43:43;5.80;;;1.70;;
77449;SDS011;66536;53.150;18.172;2023-04-03T07:46:10;7.60;;;1.80;;
77449;SDS011;66536;53.150;18.172;2023-04-03T07:48:36;3.60;;;0.90;;
77449;SDS011;66536;53.150;18.172;2023-04-03T07:51:03;4.10;;;0.90;;
77449;SDS011;66536;53.150;18.172;2023-04-03T07:53:30;2.10;;;0.70;;
77449;SDS011;66536;53.150;18.172;2023-04-03T07:58:57;12.30;;;7.40;;
77449;SDS011;66536;53.150;18.172;2023-04-03T08:01:23;3.80;;;2.40;;
77449;SDS011;66536;53.150;18.172;2023-04-03T08:03:54;6.00;;;1.70;;
77449;SDS011;66536;53.150;18.172;2023-04-03T08:06:20;5.00;;;1.20;;
77449;SDS011;66536;53.150;18.172;2023-04-03T08:08:46;4.70;;;2.70;;
77449;SDS011;66536;53.150;18.172;2023-04-03T08:11:12;5.60;;;1.10;;
77449;SDS011;66536;53.150;18.172;2023-04-03T08:13:39;4.70;;;1.20;;
77449;SDS011;66536;53.150;18.172;2023-04-03T08:16:08;2.60;;;1.10;;
77449;SDS011;66536;53.150;18.172;2023-04-03T08:18:35;3.00;;;1.00;;
77449;SDS011;66536;53.150;18.172;2023-04-03T08:21:04;3.10;;;1.10;;
77449;SDS011;66536;53.150;18.172;2023-04-03T08:23:31;3.50;;;0.70;;
77449;SDS011;66536;53.150;18.172;2023-04-03T08:25:57;3.50;;;1.00;;
77449;SDS011;66536;53.150;18.172;2023-04-03T08:28:23;3.60;;;1.00;;
77449;SDS011;66536;53.150;18.172;2023-04-03T08:30:50;3.00;;;1.00;;
77449;SDS011;66536;53.150;18.172;2023-04-03T08:33:16;3.10;;;1.00;;
77449;SDS011;66536;53.150;18.172;2023-04-03T08:35:43;4.70;;;1.40;;
77449;SDS011;66536;53.150;18.172;2023-04-03T08:38:09;6.00;;;1.30;;
77449;SDS011;66536;53.150;18.172;2023-04-03T08:40:35;4.40;;;0.80;;
77449;SDS011;66536;53.150;18.172;2023-04-03T08:43:16;3.70;;;0.70;;
77449;SDS011;66536;53.150;18.172;2023-04-03T08:45:57;2.60;;;0.90;;
77449;SDS011;66536;53.150;18.172;2023-04-03T08:48:27;3.10;;;0.70;;
77449;SDS011;66536;53.150;18.172;2023-04-03T08:50:58;5.60;;;1.30;;
77449;SDS011;66536;53.150;18.172;2023-04-03T08:53:30;4.30;;;0.70;;
77449;SDS011;66536;53.150;18.172;2023-04-03T08:56:02;3.90;;;1.10;;
77449;SDS011;66536;53.150;18.172;2023-04-03T08:58:36;2.50;;;0.80;;
77449;SDS011;66536;53.150;18.172;2023-04-03T09:01:20;2.10;;;0.70;;
77449;SDS011;66536;53.150;18.172;2023-04-03T09:03:50;4.20;;;1.90;;
77449;SDS011;66536;53.150;18.172;2023-04-03T09:06:20;3.70;;;1.30;;
77449;SDS011;66536;53.150;18.172;2023-04-03T09:08:51;4.20;;;0.70;;
77449;SDS011;66536;53.150;18.172;2023-04-03T09:12:03;1.50;;;0.50;;
77449;SDS011;66536;53.150;18.172;2023-04-03T09:17:15;4.10;;;1.20;;
77449;SDS011;66536;53.150;18.172;2023-04-03T09:19:54;4.20;;;1.00;;
77449;SDS011;66536;53.150;18.172;2023-04-03T09:22:28;2.90;;;0.70;;
77449;SDS011;66536;53.150;18.172;2023-04-03T09:25:00;2.80;;;0.80;;
77449;SDS011;66536;53.150;18.172;2023-04-03T09:27:34;2.70;;;0.80;;
77449;SDS011;66536;53.150;18.172;2023-04-03T09:30:01;2.80;;;0.70;;
77449;SDS011;66536;53.150;18.172;2023-04-03T09:32:30;4.00;;;0.60;;
77449;SDS011;66536;53.150;18.172;2023-04-03T09:35:01;3.80;;;0.80;;
77449;SDS011;66536;53.150;18.172;2023-04-03T09:37:35;2.10;;;0.60;;
77449;SDS011;66536;53.150;18.172;2023-04-03T09:40:04;1.90;;;0.70;;
77449;SDS011;66536;53.150;18.172;2023-04-03T09:42:32;1.90;;;0.40;;
77449;SDS011;66536;53.150;18.172;2023-04-03T09:44:59;2.10;;;0.50;;
77449;SDS011;66536;53.150;18.172;2023-04-03T09:47:28;1.40;;;0.50;;
77449;SDS011;66536;53.150;18.172;2023-04-03T09:52:47;3.30;;;0.80;;
77449;SDS011;66536;53.150;18.172;2023-04-03T09:55:23;2.60;;;0.80;;
77449;SDS011;66536;53.150;18.172;2023-04-03T09:58:03;1.40;;;0.70;;
77449;SDS011;66536;53.150;18.172;2023-04-03T10:00:33;2.90;;;0.90;;
77449;SDS011;66536;53.150;18.172;2023-04-03T10:03:05;2.00;;;0.60;;
77449;SDS011;66536;53.150;18.172;2023-04-03T10:05:48;1.70;;;0.70;;
77449;SDS011;66536;53.150;18.172;2023-04-03T10:08:20;3.90;;;0.90;;
77449;SDS011;66536;53.150;18.172;2023-04-03T10:11:15;2.30;;;0.70;;
77449;SDS011;66536;53.150;18.172;2023-04-03T10:13:53;1.80;;;0.70;;
77449;SDS011;66536;53.150;18.172;2023-04-03T10:16:25;2.80;;;0.70;;
77449;SDS011;66536;53.150;18.172;2023-04-03T10:19:02;2.60;;;0.80;;
77449;SDS011;66536;53.150;18.172;2023-04-03T10:21:38;2.00;;;1.00;;
77449;SDS011;66536;53.150;18.172;2023-04-03T10:24:14;1.60;;;0.50;;
77449;SDS011;66536;53.150;18.172;2023-04-03T10:26:54;4.00;;;1.40;;
77449;SDS011;66536;53.150;18.172;2023-04-03T10:35:34;2.90;;;0.80;;
77449;SDS011;66536;53.150;18.172;2023-04-03T10:38:13;3.00;;;1.10;;
77449;SDS011;66536;53.150;18.172;2023-04-03T10:40:50;1.90;;;0.80;;
77449;SDS011;66536;53.150;18.172;2023-04-03T10:43:23;3.70;;;0.80;;
77449;SDS011;66536;53.150;18.172;2023-04-03T10:46:10;3.30;;;0.90;;
77449;SDS011;66536;53.150;18.172;2023-04-03T10:48:49;2.90;;;0.80;;
77449;SDS011;66536;53.150;18.172;2023-04-03T10:51:29;3.20;;;1.80;;
77449;SDS011;66536;53.150;18.172;2023-04-03T10:54:11;1.60;;;0.80;;
77449;SDS011;66536;53.150;18.172;2023-04-03T10:56:42;4.30;;;1.40;;
77449;SDS011;66536;53.150;18.172;2023-04-03T10:59:23;1.70;;;0.70;;
77449;SDS011;66536;53.150;18.172;2023-04-03T11:02:04;2.50;;;0.80;;
77449;SDS011;66536;53.150;18.172;2023-04-03T11:04:39;5.00;;;3.40;;
77449;SDS011;66536;53.150;18.172;2023-04-03T11:07:10;2.30;;;0.80;;
77449;SDS011;66536;53.150;18.172;2023-04-03T11:09:45;1.90;;;0.50;;
77449;SDS011;66536;53.150;18.172;2023-04-03T11:13:00;2.20;;;0.60;;
77449;SDS011;66536;53.150;18.172;2023-04-03T11:16:04;4.00;;;0.90;;
77449;SDS011;66536;53.150;18.172;2023-04-03T11:18:35;3.80;;;1.20;;
77449;SDS011;66536;53.150;18.172;2023-04-03T11:21:12;4.20;;;1.00;;
77449;SDS011;66536;53.150;18.172;2023-04-03T11:23:47;2.50;;;1.00;;
77449;SDS011;66536;53.150;18.172;2023-04-03T11:26:16;1.80;;;0.50;;
77449;SDS011;66536;53.150;18.172;2023-04-03T11:29:06;1.70;;;0.50;;
77449;SDS011;66536;53.150;18.172;2023-04-03T11:34:35;1.70;;;0.40;;
77449;SDS011;66536;53.150;18.172;2023-04-03T11:39:59;2.90;;;0.90;;
77449;SDS011;66536;53.150;18.172;2023-04-03T11:45:51;4.70;;;1.50;;
77449;SDS011;66536;53.150;18.172;2023-04-03T11:56:55;5.50;;;2.00;;
77449;SDS011;66536;53.150;18.172;2023-04-03T11:59:22;5.20;;;1.50;;
77449;SDS011;66536;53.150;18.172;2023-04-03T12:01:53;2.90;;;1.10;;
77449;SDS011;66536;53.150;18.172;2023-04-03T12:04:23;3.30;;;1.00;;
77449;SDS011;66536;53.150;18.172;2023-04-03T12:06:52;4.80;;;1.60;;
77449;SDS011;66536;53.150;18.172;2023-04-03T12:09:54;4.30;;;2.20;;
77449;SDS011;66536;53.150;18.172;2023-04-03T12:17:43;13.70;;;6.40;;
77449;SDS011;66536;53.150;18.172;2023-04-03T12:20:45;23.30;;;9.90;;
77449;SDS011;66536;53.150;18.172;2023-04-03T12:23:28;10.80;;;3.00;;
77449;SDS011;66536;53.150;18.172;2023-04-03T12:26:01;25.20;;;11.90;;
77449;SDS011;66536;53.150;18.172;2023-04-03T12:28:36;11.90;;;4.60;;
77449;SDS011;66536;53.150;18.172;2023-04-03T12:31:10;13.30;;;9.40;;
77449;SDS011;66536;53.150;18.172;2023-04-03T12:34:11;2.90;;;1.10;;
77449;SDS011;66536;53.150;18.172;2023-04-03T12:36:40;9.30;;;2.20;;
77449;SDS011;66536;53.150;18.172;2023-04-03T12:45:15;20.50;;;4.60;;
77449;SDS011;66536;53.150;18.172;2023-04-03T12:47:44;18.20;;;4.60;;
77449;SDS011;66536;53.150;18.172;2023-04-03T12:50:17;24.30;;;3.90;;
77449;SDS011;66536;53.150;18.172;2023-04-03T12:52:57;29.10;;;5.40;;
77449;SDS011;66536;53.150;18.172;2023-04-03T12:55:54;23.90;;;4.50;;
77449;SDS011;66536;53.150;18.172;2023-04-03T12:58:42;27.40;;;4.20;;
77449;SDS011;66536;53.150;18.172;2023-04-03T13:01:15;22.10;;;3.60;;
77449;SDS011;66536;53.150;18.172;2023-04-03T13:03:45;18.60;;;3.50;;
77449;SDS011;66536;53.150;18.172;2023-04-03T13:06:17;13.60;;;3.30;;
77449;SDS011;66536;53.150;18.172;2023-04-03T13:08:50;6.40;;;2.20;;
77449;SDS011;66536;53.150;18.172;2023-04-03T13:11:17;10.30;;;2.70;;
77449;SDS011;66536;53.150;18.172;2023-04-03T13:13:56;5.30;;;1.50;;
77449;SDS011;66536;53.150;18.172;2023-04-03T13:19:24;8.90;;;2.70;;
77449;SDS011;66536;53.150;18.172;2023-04-03T13:21:55;4.70;;;1.20;;
77449;SDS011;66536;53.150;18.172;2023-04-03T13:24:30;5.60;;;1.70;;
77449;SDS011;66536;53.150;18.172;2023-04-03T13:26:59;3.90;;;1.30;;
77449;SDS011;66536;53.150;18.172;2023-04-03T13:29:31;5.30;;;1.80;;
77449;SDS011;66536;53.150;18.172;2023-04-03T13:32:00;5.40;;;1.70;;
77449;SDS011;66536;53.150;18.172;2023-04-03T13:34:40;2.10;;;0.90;;
77449;SDS011;66536;53.150;18.172;2023-04-03T13:37:19;10.60;;;2.90;;
77449;SDS011;66536;53.150;18.172;2023-04-03T13:39:56;3.80;;;0.80;;
77449;SDS011;66536;53.150;18.172;2023-04-03T13:42:26;3.90;;;1.60;;
77449;SDS011;66536;53.150;18.172;2023-04-03T13:47:39;9.90;;;3.40;;
77449;SDS011;66536;53.150;18.172;2023-04-03T13:50:14;2.70;;;1.10;;
77449;SDS011;66536;53.150;18.172;2023-04-03T13:55:34;5.80;;;1.60;;
77449;SDS011;66536;53.150;18.172;2023-04-03T13:58:25;2.10;;;1.00;;
77449;SDS011;66536;53.150;18.172;2023-04-03T14:00:53;3.70;;;0.90;;
77449;SDS011;66536;53.150;18.172;2023-04-03T14:03:28;4.10;;;1.00;;
77449;SDS011;66536;53.150;18.172;2023-04-03T14:05:59;5.00;;;1.10;;
77449;SDS011;66536;53.150;18.172;2023-04-03T14:08:30;3.20;;;1.00;;
77449;SDS011;66536;53.150;18.172;2023-04-03T14:10:56;9.80;;;3.70;;
77449;SDS011;66536;53.150;18.172;2023-04-03T14:13:25;4.40;;;1.80;;
77449;SDS011;66536;53.150;18.172;2023-04-03T14:15:51;5.00;;;1.00;;
77449;SDS011;66536;53.150;18.172;2023-04-03T14:18:18;1.50;;;0.80;;
77449;SDS011;66536;53.150;18.172;2023-04-03T14:20:46;3.50;;;1.10;;
77449;SDS011;66536;53.150;18.172;2023-04-03T14:23:13;5.10;;;2.50;;
77449;SDS011;66536;53.150;18.172;2023-04-03T14:25:39;9.40;;;2.40;;
77449;SDS011;66536;53.150;18.172;2023-04-03T14:28:15;7.30;;;1.70;;
77449;SDS011;66536;53.150;18.172;2023-04-03T14:30:49;6.00;;;1.80;;
77449;SDS011;66536;53.150;18.172;2023-04-03T14:33:17;10.50;;;2.20;;
77449;SDS011;66536;53.150;18.172;2023-04-03T14:35:47;8.90;;;2.20;;
77449;SDS011;66536;53.150;18.172;2023-04-03T14:38:24;12.50;;;7.70;;
77449;SDS011;66536;53.150;18.172;2023-04-03T14:40:53;6.60;;;1.90;;
77449;SDS011;66536;53.150;18.172;2023-04-03T14:43:21;6.20;;;1.40;;
77449;SDS011;66536;53.150;18.172;2023-04-03T14:45:49;5.30;;;1.80;;
77449;SDS011;66536;53.150;18.172;2023-04-03T14:48:18;4.40;;;1.30;;
77449;SDS011;66536;53.150;18.172;2023-04-03T14:50:50;5.80;;;1.10;;
77449;SDS011;66536;53.150;18.172;2023-04-03T14:53:23;6.30;;;1.50;;
77449;SDS011;66536;53.150;18.172;2023-04-03T14:55:52;3.80;;;1.40;;
77449;SDS011;66536;53.150;18.172;2023-04-03T14:58:19;17.40;;;1.10;;
77449;SDS011;66536;53.150;18.172;2023-04-03T15:00:49;2.70;;;1.10;;
77449;SDS011;66536;53.150;18.172;2023-04-03T15:03:17;3.00;;;1.30;;
77449;SDS011;66536;53.150;18.172;2023-04-03T15:05:47;2.30;;;0.90;;
77449;SDS011;66536;53.150;18.172;2023-04-03T15:08:21;2.00;;;0.70;;
77449;SDS011;66536;53.150;18.172;2023-04-03T15:10:58;3.00;;;1.60;;
77449;SDS011;66536;53.150;18.172;2023-04-03T15:14:01;5.30;;;1.90;;
77449;SDS011;66536;53.150;18.172;2023-04-03T15:16:29;3.50;;;1.20;;
77449;SDS011;66536;53.150;18.172;2023-04-03T15:19:24;4.30;;;1.70;;
77449;SDS011;66536;53.150;18.172;2023-04-03T15:22:00;4.40;;;2.20;;
77449;SDS011;66536;53.150;18.172;2023-04-03T15:25:30;7.10;;;2.20;;
77449;SDS011;66536;53.150;18.172;2023-04-03T15:29:30;4.40;;;1.90;;
77449;SDS011;66536;53.150;18.172;2023-04-03T15:32:11;3.10;;;1.60;;
77449;SDS011;66536;53.150;18.172;2023-04-03T15:35:21;7.10;;;2.80;;
77449;SDS011;66536;53.150;18.172;2023-04-03T15:37:55;7.80;;;3.60;;
77449;SDS011;66536;53.150;18.172;2023-04-03T15:40:22;9.90;;;2.70;;
77449;SDS011;66536;53.150;18.172;2023-04-03T15:42:54;18.50;;;7.90;;
77449;SDS011;66536;53.150;18.172;2023-04-03T15:45:24;7.70;;;3.00;;
77449;SDS011;66536;53.150;18.172;2023-04-03T15:47:56;3.80;;;1.40;;
77449;SDS011;66536;53.150;18.172;2023-04-03T15:50:26;7.90;;;3.10;;
77449;SDS011;66536;53.150;18.172;2023-04-03T15:52:53;7.40;;;2.90;;
77449;SDS011;66536;53.150;18.172;2023-04-03T15:55:21;8.40;;;3.80;;
77449;SDS011;66536;53.150;18.172;2023-04-03T15:57:51;12.70;;;5.30;;
77449;SDS011;66536;53.150;18.172;2023-04-03T16:00:37;5.30;;;2.80;;
77449;SDS011;66536;53.150;18.172;2023-04-03T16:03:04;9.20;;;3.70;;
77449;SDS011;66536;53.150;18.172;2023-04-03T16:05:38;8.50;;;2.90;;
77449;SDS011;66536;53.150;18.172;2023-04-03T16:08:06;6.30;;;2.90;;